Time;durP1;ratioP1;P1;durP2;ratioP2;P2;SDS_P1;SDS_P2;PMS_P1;PMS_P2;Temp;Humidity;BMP_temperature;BMP_pressure;BME280_temperature;BME280_humidity;BME280_pressure;Samples;Min_cycle;Max_cycle;Signal;HPM_P1;HPM_P2
2021/09/21 00:00:43;;;;;;;9.57;5.70;;;;;;;5.21;79.33;100457.31;6184852;23;20416;-73
2021/09/21 00:03:09;;;;;;;10.57;5.85;;;;;;;5.19;79.00;100464.22;6135631;23;20029;-73
2021/09/21 00:05:35;;;;;;;10.70;5.57;;;;;;;5.13;79.00;100462.44;6135598;23;20018;-73
2021/09/21 00:08:01;;;;;;;14.05;7.32;;;;;;;5.15;78.83;100464.22;6159787;23;20013;-73
2021/09/21 00:10:27;;;;;;;14.73;8.15;;;;;;;5.05;79.27;100453.75;6136259;23;20025;-73
2021/09/21 00:12:53;;;;;;;17.58;8.82;;;;;;;5.20;79.18;100481.53;6135470;23;20013;-73
2021/09/21 00:15:19;;;;;;;16.60;8.85;;;;;;;5.14;79.18;100459.88;6160672;23;20014;-73
2021/09/21 00:17:46;;;;;;;17.15;8.43;;;;;;;5.24;79.15;100471.22;6135467;23;20076;-73
2021/09/21 00:20:12;;;;;;;17.80;8.15;;;;;;;5.26;79.46;100471.19;6110947;23;20167;-73
2021/09/21 00:22:38;;;;;;;13.18;7.60;;;;;;;4.93;79.02;100416.44;6160013;23;20030;-73
2021/09/21 00:25:04;;;;;;;11.77;7.32;;;;;;;5.25;79.04;100466.88;6135558;23;20025;-73
2021/09/21 00:27:30;;;;;;;13.80;6.53;;;;;;;5.13;78.99;100452.06;6135440;23;20291;-73
2021/09/21 00:29:56;;;;;;;11.10;6.20;;;;;;;5.21;78.95;100467.72;6136138;23;20017;-73
2021/09/21 00:32:25;;;;;;;13.10;7.47;;;;;;;5.10;79.02;100450.34;6087113;23;20014;-73
2021/09/21 00:34:52;;;;;;;16.23;8.23;;;;;;;5.14;78.88;100466.81;6159566;23;20021;-73
2021/09/21 00:37:17;;;;;;;20.08;10.13;;;;;;;4.93;79.04;100432.00;6111436;23;20211;-73
2021/09/21 00:39:43;;;;;;;36.20;15.60;;;;;;;5.08;79.07;100470.22;6159269;23;20034;-73
2021/09/21 00:42:09;;;;;;;33.00;15.10;;;;;;;5.02;79.42;100454.59;6135162;23;20021;-73
2021/09/21 00:44:36;;;;;;;30.40;13.80;;;;;;;5.05;79.33;100465.00;6135236;23;20024;-73
2021/09/21 00:47:03;;;;;;;24.67;11.18;;;;;;;5.08;79.98;100458.97;6135577;23;20021;-73
2021/09/21 00:49:29;;;;;;;22.40;10.57;;;;;;;5.21;80.20;100465.13;6135981;23;20042;-73
2021/09/21 00:51:55;;;;;;;20.50;10.02;;;;;;;4.98;80.63;100416.50;6159880;23;20029;-73
2021/09/21 00:54:21;;;;;;;15.65;8.85;;;;;;;5.11;81.06;100431.28;6124712;23;20447;-73
2021/09/21 00:56:47;;;;;;;17.63;10.48;;;;;;;5.45;81.40;100475.66;6130702;23;20026;-73
2021/09/21 00:59:12;;;;;;;16.52;9.23;;;;;;;5.51;82.01;100473.09;6130047;23;20018;-73
2021/09/21 01:01:38;;;;;;;16.05;9.13;;;;;;;5.60;81.95;100473.16;6105619;23;20024;-73
2021/09/21 01:04:05;;;;;;;18.13;8.93;;;;;;;5.60;82.68;100457.56;6105699;23;20037;-73
2021/09/21 01:06:32;;;;;;;15.43;8.10;;;;;;;5.80;82.83;100465.47;6106475;23;20025;-73
2021/09/21 01:08:58;;;;;;;14.35;8.73;;;;;;;5.61;82.53;100422.06;6105461;23;20014;-73
2021/09/21 01:11:23;;;;;;;14.77;8.45;;;;;;;5.80;82.45;100452.47;6105583;23;20401;-73
2021/09/21 01:13:49;;;;;;;12.88;8.10;;;;;;;5.76;82.04;100436.88;6081294;23;20024;-73
2021/09/21 01:16:15;;;;;;;15.13;8.27;;;;;;;5.69;81.95;100411.69;6105515;23;20408;-73
2021/09/21 01:18:42;;;;;;;16.45;8.25;;;;;;;5.84;81.98;100445.56;6105381;23;20297;-73
2021/09/21 01:21:10;;;;;;;15.13;9.23;;;;;;;5.97;81.71;100459.50;6129736;23;20025;-73
2021/09/21 01:23:49;;;;;;;14.60;8.23;;;;;;;5.94;81.66;100468.16;6129591;23;20297;-73
2021/09/21 01:26:16;;;;;;;15.30;8.50;;;;;;;5.92;81.55;100467.28;6090953;23;20022;-73
2021/09/21 01:28:42;;;;;;;15.05;7.85;;;;;;;5.92;81.36;100475.06;6105161;23;20018;-73
2021/09/21 01:31:08;;;;;;;15.43;8.35;;;;;;;5.90;81.42;100475.91;6129722;23;20018;-73
2021/09/21 01:33:34;;;;;;;14.38;7.95;;;;;;;5.93;81.14;100482.03;6105276;23;20389;-73
2021/09/21 01:36:00;;;;;;;11.95;7.22;;;;;;;5.89;81.16;100469.84;6105325;23;20022;-73
2021/09/21 01:38:25;;;;;;;17.17;8.13;;;;;;;5.84;81.41;100468.94;6105999;23;20018;-73
2021/09/21 01:40:51;;;;;;;18.17;8.55;;;;;;;5.68;81.52;100444.59;6105227;23;20017;-73
2021/09/21 01:43:17;;;;;;;12.68;7.85;;;;;;;5.88;81.22;100478.50;6129577;23;20022;-73
2021/09/21 01:45:43;;;;;;;12.25;6.65;;;;;;;5.91;81.36;100473.31;6130308;23;20080;-73
2021/09/21 01:48:08;;;;;;;10.38;6.60;;;;;;;5.90;81.31;100474.19;6082031;23;20280;-73
2021/09/21 01:50:55;;;;;;;11.00;6.93;;;;;;;5.34;81.10;100369.09;6105390;23;20022;-73
2021/09/21 01:53:45;;;;;;;10.23;5.97;;;;;;;5.94;81.27;100475.09;6097153;23;20454;-73
2021/09/21 01:58:55;;;;;;;10.45;5.82;;;;;;;5.96;82.03;100468.19;6148321;23;20013;-73
2021/09/21 02:01:25;;;;;;;10.77;6.40;;;;;;;6.09;82.03;100483.81;6134311;23;20040;-73
2021/09/21 02:03:53;;;;;;;9.35;6.20;;;;;;;6.01;81.68;100453.44;6134462;23;20407;-73
2021/09/21 02:06:22;;;;;;;10.52;6.22;;;;;;;6.12;81.81;100469.09;6134770;23;20024;-73
2021/09/21 02:08:48;;;;;;;10.70;6.30;;;;;;;6.06;81.72;100451.75;6159409;23;20018;-73
2021/09/21 02:11:14;;;;;;;10.27;5.88;;;;;;;6.19;81.94;100468.25;6158846;23;20407;-73
2021/09/21 02:13:40;;;;;;;9.32;6.30;;;;;;;6.14;82.37;100470.81;6134504;23;20079;-73
2021/09/21 02:16:06;;;;;;;8.00;4.95;;;;;;;6.23;82.47;100483.00;6134385;23;20415;-73
2021/09/21 02:18:31;;;;;;;8.73;5.05;;;;;;;5.99;82.07;100430.03;6158870;23;20017;-73
2021/09/21 02:20:57;;;;;;;7.75;5.25;;;;;;;6.23;81.89;100467.41;6110166;23;20056;-73
2021/09/21 02:23:23;;;;;;;6.80;4.38;;;;;;;6.29;81.67;100468.28;6183461;23;20021;-73
2021/09/21 02:25:49;;;;;;;10.23;5.40;;;;;;;6.09;81.08;100439.63;6134930;23;20018;-73
2021/09/21 02:28:15;;;;;;;7.25;4.68;;;;;;;6.14;81.07;100452.63;6134226;23;20027;-73
2021/09/21 02:30:41;;;;;;;8.77;5.68;;;;;;;6.07;81.32;100454.34;6134285;23;20025;-73
2021/09/21 02:33:07;;;;;;;9.68;5.85;;;;;;;6.22;81.76;100476.94;6159011;23;20018;-73
2021/09/21 02:35:33;;;;;;;9.38;5.43;;;;;;;6.08;81.31;100443.09;6134228;23;20018;-73
2021/09/21 02:37:59;;;;;;;9.50;5.93;;;;;;;6.27;81.46;100479.53;6134267;23;20017;-73
2021/09/21 02:40:26;;;;;;;10.90;6.30;;;;;;;6.24;81.05;100470.03;6134096;23;20029;-73
2021/09/21 02:42:52;;;;;;;8.68;5.82;;;;;;;6.24;81.17;100472.63;6134698;23;20024;-73
2021/09/21 02:45:18;;;;;;;9.25;5.82;;;;;;;6.24;80.88;100458.72;6134103;23;20014;-73
2021/09/21 02:47:44;;;;;;;8.77;5.88;;;;;;;6.31;80.95;100468.31;6159279;23;20365;-73
2021/09/21 02:50:10;;;;;;;9.95;6.05;;;;;;;6.10;81.52;100445.69;6183982;23;20014;-73
2021/09/21 02:52:37;;;;;;;14.15;7.22;;;;;;;6.26;81.70;100476.06;6158655;23;20017;-73
2021/09/21 02:55:04;;;;;;;13.43;6.85;;;;;;;6.23;81.37;100465.66;6144021;23;20017;-73
2021/09/21 02:57:32;;;;;;;14.80;7.45;;;;;;;6.16;81.34;100440.50;6134799;23;20021;-73
2021/09/21 02:59:58;;;;;;;12.63;6.90;;;;;;;6.16;81.15;100430.09;6133741;23;20393;-73
2021/09/21 03:02:24;;;;;;;11.23;6.93;;;;;;;6.24;81.32;100451.81;6133532;23;20024;-73
2021/09/21 03:04:54;;;;;;;12.20;6.55;;;;;;;6.23;81.19;100446.59;6134118;23;20392;-73
2021/09/21 03:07:30;;;;;;;12.50;7.18;;;;;;;6.19;80.89;100448.31;6164801;23;20018;-73
2021/09/21 03:10:20;;;;;;;10.50;5.68;;;;;;;6.08;80.71;100435.28;6148102;23;20087;-73
2021/09/21 03:17:59;;;;;;;9.55;6.32;;;;;;;5.77;80.65;100417.78;6147509;23;20025;-73
2021/09/21 03:20:25;;;;;;;12.15;6.75;;;;;;;5.99;79.98;100474.25;6109610;23;20017;-73
2021/09/21 03:22:50;;;;;;;11.88;6.60;;;;;;;5.87;80.63;100466.38;6158410;23;20405;-73
2021/09/21 03:25:18;;;;;;;13.02;7.70;;;;;;;5.85;80.72;100473.31;6158724;23;20022;-73
2021/09/21 03:27:44;;;;;;;12.57;7.60;;;;;;;5.89;81.08;100487.19;6134446;23;20018;-73
2021/09/21 03:30:11;;;;;;;9.80;6.47;;;;;;;5.84;81.17;100477.59;6158705;23;20017;-73
2021/09/21 03:32:37;;;;;;;10.77;6.70;;;;;;;5.70;81.04;100457.63;6133977;23;20080;-73
2021/09/21 03:35:04;;;;;;;12.65;7.45;;;;;;;5.71;81.06;100467.16;6134514;23;20021;-73
2021/09/21 03:37:29;;;;;;;11.20;7.07;;;;;;;5.77;80.47;100486.25;6159324;23;20411;-73
2021/09/21 03:39:55;;;;;;;14.27;6.88;;;;;;;5.48;80.11;100451.44;6133840;23;20025;-73
2021/09/21 03:42:21;;;;;;;11.60;6.72;;;;;;;5.70;80.50;100492.28;6158380;23;20292;-73
2021/09/21 03:44:47;;;;;;;13.73;7.65;;;;;;;5.65;80.55;100496.56;6159770;23;20013;-73
2021/09/21 03:47:13;;;;;;;11.20;7.70;;;;;;;5.67;80.18;100502.66;6158307;23;20336;-73
2021/09/21 03:49:38;;;;;;;14.75;7.57;;;;;;;5.68;80.41;100500.91;6158620;23;20078;-73
2021/09/21 03:52:04;;;;;;;13.30;7.05;;;;;;;5.58;80.70;100477.47;6134498;23;20021;-73
2021/09/21 03:54:30;;;;;;;13.50;7.82;;;;;;;5.67;80.68;100494.00;6133761;23;20014;-73
2021/09/21 03:56:56;;;;;;;13.27;7.53;;;;;;;5.62;80.64;100486.16;6133494;23;20419;-73
2021/09/21 03:59:24;;;;;;;13.68;8.10;;;;;;;5.71;81.39;100503.53;6158241;23;20414;-73
2021/09/21 04:01:51;;;;;;;12.05;7.75;;;;;;;5.71;81.19;100513.94;6158209;23;20018;-73
2021/09/21 04:04:17;;;;;;;12.68;7.30;;;;;;;5.66;80.82;100503.53;6133813;23;20120;-73
2021/09/21 04:06:42;;;;;;;13.57;7.43;;;;;;;5.75;80.88;100513.97;6158252;23;20412;-73
2021/09/21 04:09:09;;;;;;;11.95;7.20;;;;;;;5.74;80.97;100500.97;6157862;23;20013;-72
2021/09/21 04:11:35;;;;;;;14.10;7.85;;;;;;;5.62;80.84;100491.34;6133744;23;20028;-73
2021/09/21 04:14:00;;;;;;;15.45;10.32;;;;;;;5.70;80.94;100512.22;6159227;23;20077;-73
2021/09/21 04:16:28;;;;;;;13.15;8.82;;;;;;;5.70;82.46;100514.81;6159992;23;20392;-73
2021/09/21 04:18:54;;;;;;;15.18;9.60;;;;;;;5.74;81.98;100517.41;6136974;23;20087;-73
2021/09/21 04:21:20;;;;;;;13.32;8.90;;;;;;;5.84;81.79;100528.75;6135397;23;20404;-73
2021/09/21 04:23:46;;;;;;;15.45;9.70;;;;;;;5.83;81.82;100521.81;6110559;23;20013;-73
2021/09/21 04:26:12;;;;;;;19.63;10.38;;;;;;;5.85;81.57;100512.31;6142759;23;20049;-73
2021/09/21 04:28:39;;;;;;;15.43;10.35;;;;;;;5.90;81.43;100514.91;6157545;23;20039;-73
2021/09/21 04:31:10;;;;;;;18.10;10.38;;;;;;;5.79;81.44;100486.28;6134703;23;20029;-73
2021/09/21 04:33:37;;;;;;;15.52;9.68;;;;;;;5.91;81.50;100499.31;6144314;23;20099;-73
2021/09/21 04:36:09;;;;;;;16.42;9.98;;;;;;;6.04;81.09;100511.53;6133467;23;20018;-73
2021/09/21 04:38:35;;;;;;;;;;;;;;;5.96;81.52;100514.97;6134073;23;20025;-73
2021/09/21 04:41:01;;;;;;;18.80;8.93;;;;;;;5.96;81.71;100518.44;6159655;23;20008;-73
2021/09/21 04:43:27;;;;;;;16.13;8.98;;;;;;;5.87;81.37;100489.75;6134650;23;20343;-73
2021/09/21 04:45:53;;;;;;;13.35;7.35;;;;;;;5.99;81.30;100515.88;6132916;23;20013;-73
2021/09/21 04:48:18;;;;;;;14.88;7.57;;;;;;;6.05;81.26;100526.31;6182133;23;20322;-73
2021/09/21 04:50:44;;;;;;;10.57;6.95;;;;;;;5.97;81.36;100516.72;6158440;23;20032;-73
2021/09/21 04:53:11;;;;;;;13.93;7.50;;;;;;;6.02;81.06;100528.88;6156992;23;20053;-73
2021/09/21 04:55:36;;;;;;;14.60;8.35;;;;;;;6.03;80.92;100527.16;6133286;23;20076;-73
2021/09/21 04:58:02;;;;;;;12.13;7.40;;;;;;;6.03;80.71;100527.16;6157418;23;20198;-73
2021/09/21 05:00:28;;;;;;;13.13;7.30;;;;;;;6.12;81.09;100540.19;6159422;23;20014;-73
2021/09/21 05:02:54;;;;;;;12.05;6.88;;;;;;;6.19;81.13;100541.97;6159487;23;20018;-73
2021/09/21 05:05:20;;;;;;;13.85;7.30;;;;;;;6.12;81.18;100521.13;6135004;23;20025;-73
2021/09/21 05:07:46;;;;;;;13.13;7.32;;;;;;;6.23;80.90;100546.31;6135270;23;20021;-73
2021/09/21 05:10:12;;;;;;;12.00;6.85;;;;;;;6.26;81.17;100548.91;6159531;23;20028;-73
2021/09/21 05:12:37;;;;;;;11.43;7.22;;;;;;;6.26;80.99;100546.31;6134596;23;20013;-73
2021/09/21 05:15:04;;;;;;;12.75;7.70;;;;;;;6.18;80.84;100521.16;6134883;23;20018;-73
2021/09/21 05:17:30;;;;;;;11.68;7.53;;;;;;;6.27;81.19;100535.06;6111054;23;20048;-73
2021/09/21 05:19:55;;;;;;;10.98;6.10;;;;;;;6.32;81.01;100542.88;6135154;23;20101;-73
2021/09/21 05:22:22;;;;;;;10.93;6.82;;;;;;;6.30;80.98;100531.59;6134723;23;20273;-73
2021/09/21 05:24:48;;;;;;;11.93;6.85;;;;;;;6.21;81.15;100508.16;6134963;23;20020;-73
2021/09/21 05:27:13;;;;;;;13.20;7.18;;;;;;;6.22;81.10;100517.69;6110390;23;20018;-73
2021/09/21 05:29:39;;;;;;;10.77;6.53;;;;;;;6.13;81.26;100491.66;6159215;23;20018;-73
2021/09/21 05:32:05;;;;;;;14.95;7.75;;;;;;;6.34;82.15;100515.16;6134774;23;20018;-73
2021/09/21 05:34:31;;;;;;;11.93;7.20;;;;;;;6.75;82.10;100538.66;6134824;23;20331;-73
2021/09/21 05:36:57;;;;;;;11.98;8.18;;;;;;;6.94;82.28;100533.50;6160341;23;20336;-73
2021/09/21 05:39:22;;;;;;;13.30;8.82;;;;;;;7.13;82.27;100544.81;6159327;23;20075;-73
2021/09/21 05:41:48;;;;;;;14.73;9.00;;;;;;;7.24;82.41;100543.06;6134530;23;20044;-73
2021/09/21 05:44:14;;;;;;;18.52;9.40;;;;;;;7.25;81.65;100529.19;6159094;23;20029;-73
2021/09/21 05:46:40;;;;;;;15.75;8.63;;;;;;;7.36;81.46;100545.69;6134559;23;20018;-73
2021/09/21 05:49:05;;;;;;;14.02;8.23;;;;;;;7.38;81.54;100548.28;6134640;23;20393;-73
2021/09/21 05:51:32;;;;;;;19.27;9.68;;;;;;;7.25;81.24;100518.75;6158932;23;20021;-73
2021/09/21 05:53:57;;;;;;;14.60;8.90;;;;;;;7.31;81.07;100536.13;6134460;23;20052;-73
2021/09/21 05:56:24;;;;;;;19.90;9.80;;;;;;;7.30;81.46;100523.97;6109916;23;20044;-73
2021/09/21 05:58:50;;;;;;;21.15;10.13;;;;;;;7.52;81.27;100549.16;6134632;23;20018;-73
2021/09/21 06:01:16;;;;;;;15.85;9.88;;;;;;;7.56;81.73;100540.44;6158927;23;20021;-73
2021/09/21 06:03:41;;;;;;;16.75;10.40;;;;;;;7.75;82.10;100549.13;6134611;23;20028;-73
2021/09/21 06:06:08;;;;;;;21.42;9.90;;;;;;;8.00;82.12;100559.50;6159613;23;20018;-73
2021/09/21 06:08:33;;;;;;;19.60;11.35;;;;;;;8.06;82.07;100530.75;6134401;23;20018;-73
2021/09/21 06:10:59;;;;;;;16.50;10.65;;;;;;;8.48;82.39;100539.31;6184375;23;20040;-73
2021/09/21 06:13:25;;;;;;;16.13;10.30;;;;;;;8.95;82.16;100562.56;6158613;23;20013;-73
2021/09/21 06:15:51;;;;;;;17.67;10.55;;;;;;;9.28;81.70;100542.28;6134296;23;20028;-73
2021/09/21 06:18:17;;;;;;;20.05;11.15;;;;;;;9.72;81.63;100559.34;6133993;23;20018;-73
2021/09/21 06:20:43;;;;;;;17.77;10.73;;;;;;;9.96;80.42;100548.63;6134222;23;20018;-73
2021/09/21 06:23:09;;;;;;;18.63;11.00;;;;;;;10.14;80.16;100552.81;6134291;23;20030;-73
2021/09/21 06:25:35;;;;;;;17.00;9.93;;;;;;;10.25;79.70;100539.56;6158783;23;20017;-73
2021/09/21 06:28:01;;;;;;;16.20;9.88;;;;;;;10.44;79.09;100566.44;6134335;23;20013;-73
2021/09/21 06:30:27;;;;;;;15.82;9.90;;;;;;;10.45;78.83;100553.31;6158456;23;20022;-73
2021/09/21 06:32:52;;;;;;;15.43;9.40;;;;;;;10.57;78.84;100561.91;6134427;23;20136;-73
2021/09/21 06:35:18;;;;;;;14.10;8.55;;;;;;;10.71;78.74;100565.22;6134232;23;20024;-73
2021/09/21 06:37:44;;;;;;;13.85;8.45;;;;;;;10.75;78.48;100551.16;6159535;23;20025;-73
2021/09/21 06:40:10;;;;;;;15.35;9.68;;;;;;;10.97;78.48;100565.69;6158924;23;20024;-73
2021/09/21 06:42:36;;;;;;;15.65;8.68;;;;;;;11.10;78.52;100563.75;6134255;23;20068;-73
2021/09/21 06:45:06;;;;;;;12.70;7.90;;;;;;;11.34;78.54;100564.25;6134262;23;20025;-73
2021/09/21 06:47:32;;;;;;;12.85;8.43;;;;;;;11.46;78.02;100571.94;6134021;23;20460;-73
2021/09/21 06:49:58;;;;;;;13.68;8.98;;;;;;;11.51;77.55;100569.25;6158592;23;20096;-73
2021/09/21 06:52:24;;;;;;;12.07;8.20;;;;;;;11.60;77.84;100562.09;6158364;23;20040;-73
2021/09/21 06:54:50;;;;;;;16.02;8.93;;;;;;;11.77;77.95;100556.53;6109620;23;20443;-73
2021/09/21 06:57:16;;;;;;;13.73;9.93;;;;;;;12.07;76.67;100570.88;6133962;23;20396;-73
2021/09/21 06:59:43;;;;;;;10.95;8.57;;;;;;;12.32;77.17;100554.66;6133725;23;20014;-73
2021/09/21 07:02:09;;;;;;;10.52;8.02;;;;;;;12.58;76.42;100564.63;6134318;23;20021;-73
2021/09/21 07:04:35;;;;;;;12.90;7.55;;;;;;;12.72;75.75;100559.91;6109564;23;20028;-73
2021/09/21 07:07:01;;;;;;;13.05;8.30;;;;;;;12.90;75.67;100568.28;6109693;23;20117;-73
2021/09/21 07:09:27;;;;;;;8.98;6.97;;;;;;;13.01;75.13;100569.78;6134290;23;20014;-73
2021/09/21 07:11:53;;;;;;;10.73;7.07;;;;;;;13.14;73.97;100558.97;6158428;23;20022;-73
2021/09/21 07:14:24;;;;;;;12.95;7.93;;;;;;;13.35;73.95;100571.63;6134026;23;20014;-73
2021/09/21 07:17:00;;;;;;;11.80;7.70;;;;;;;13.54;74.19;100570.28;6168268;23;20014;-73
2021/09/21 07:19:30;;;;;;;13.18;7.53;;;;;;;13.67;73.22;100562.94;6134354;23;20029;-73
2021/09/21 07:22:06;;;;;;;11.68;8.20;;;;;;;13.67;73.18;100543.66;6123088;23;20380;-73
2021/09/21 07:24:42;;;;;;;10.43;7.85;;;;;;;13.92;72.63;100568.44;6135544;23;20018;-73
2021/09/21 07:27:41;;;;;;;13.63;7.97;;;;;;;14.00;72.53;100574.34;6168496;23;20017;-73
2021/09/21 07:31:18;;;;;;;;;;;;;;;;;;;;;
2021/09/21 07:34:15;;;;;;;10.18;7.25;;;;;;;14.21;71.88;100558.88;6054693;23;20026;-73
2021/09/21 07:37:29;;;;;;;13.02;7.47;;;;;;;14.71;71.73;100578.50;6008111;23;20054;-73
2021/09/21 07:40:38;;;;;;;10.98;6.45;;;;;;;14.91;70.78;100579.66;6148612;23;20021;-73
2021/09/21 07:43:32;;;;;;;;;;;;;;;;;;;;;
2021/09/21 07:46:30;;;;;;;8.93;5.80;;;;;;;15.49;68.57;100592.78;6133403;23;20026;-73
2021/09/21 07:48:56;;;;;;;7.10;5.30;;;;;;;15.72;67.96;100597.34;6159726;23;20017;-72
2021/09/21 07:51:25;;;;;;;11.90;5.95;;;;;;;15.81;66.63;100586.47;6160075;23;20041;-73
2021/09/21 07:53:55;;;;;;;10.27;5.70;;;;;;;15.96;63.34;100598.31;6135881;23;20017;-73
2021/09/21 07:56:21;;;;;;;8.73;5.30;;;;;;;16.02;64.32;100587.50;6135572;23;20040;-73
2021/09/21 07:58:48;;;;;;;7.68;5.43;;;;;;;16.31;62.95;100604.94;6136175;23;20288;-72
2021/09/21 08:01:14;;;;;;;9.93;6.75;;;;;;;16.49;60.74;100601.66;6160142;23;20014;-72
2021/09/21 08:03:58;;;;;;;13.50;6.78;;;;;;;16.64;58.03;100594.03;6160084;23;20292;-72
2021/09/21 08:06:47;;;;;;;40.67;28.33;;;;;;;16.68;57.64;100596.53;6153989;23;20053;-72
2021/09/21 08:09:13;;;;;;;14.48;10.20;;;;;;;16.58;57.66;100590.72;6159760;23;20400;-72
2021/09/21 08:12:10;;;;;;;5.15;4.20;;;;;;;16.36;57.87;100592.44;6153919;23;20293;-73
2021/09/21 08:14:48;;;;;;;5.63;3.70;;;;;;;16.36;58.59;100590.66;6146488;23;20028;-72
2021/09/21 08:17:22;;;;;;;12.10;5.25;;;;;;;16.29;58.66;100590.94;6148445;23;20415;-72
2021/09/21 08:19:51;;;;;;;27.48;13.55;;;;;;;16.51;58.31;100596.28;6136424;23;20013;-72
2021/09/21 08:22:19;;;;;;;16.58;7.85;;;;;;;16.92;57.21;100617.72;6136508;23;20320;-73
2021/09/21 08:24:46;;;;;;;8.88;5.40;;;;;;;17.17;56.22;100604.41;6135560;23;20024;-72
2021/09/21 08:27:14;;;;;;;7.68;3.80;;;;;;;17.33;54.30;100612.59;6135806;23;20041;-73
2021/09/21 08:29:47;;;;;;;3.67;2.45;;;;;;;17.38;54.43;100600.00;6088192;23;20084;-72
2021/09/21 08:32:46;;;;;;;3.53;2.22;;;;;;;17.55;54.06;100610.78;6169596;23;20018;-72
2021/09/21 08:35:28;;;;;;;3.67;2.15;;;;;;;17.49;52.36;100621.63;6169896;23;20017;-72
2021/09/21 08:37:56;;;;;;;14.63;7.63;;;;;;;17.48;53.23;100606.66;6111385;23;20072;-73
2021/09/21 08:40:25;;;;;;;7.60;4.90;;;;;;;17.45;53.20;100615.59;6135482;23;20025;-72
2021/09/21 08:42:52;;;;;;;4.82;3.30;;;;;;;17.38;51.83;100614.09;6136337;23;20025;-72
2021/09/21 08:45:26;;;;;;;134.10;68.43;;;;;;;17.27;53.13;100603.97;6146298;23;20464;-73
2021/09/21 08:48:01;;;;;;;82.22;47.05;;;;;;;17.39;53.46;100615.00;6146734;23;20014;-73
2021/09/21 08:50:30;;;;;;;27.98;18.13;;;;;;;17.39;53.11;100615.84;6111545;23;20396;-72
2021/09/21 08:53:08;;;;;;;16.90;9.98;;;;;;;17.40;52.95;100614.06;6143049;23;20024;-72
2021/09/21 08:55:45;;;;;;;5.90;3.97;;;;;;;17.29;52.90;100618.00;6149161;23;20393;-72
2021/09/21 08:58:39;;;;;;;;;;;;;;;;;;;;;
2021/09/21 09:08:09;;;;;;;4.05;3.10;;;;;;;17.38;52.73;100610.59;6101834;23;20431;-72
2021/09/21 09:11:54;;;;;;;;;;;;;;;;;;;;;
2021/09/21 09:14:32;;;;;;;3.70;2.30;;;;;;;17.25;52.21;100629.63;6078130;23;20022;-72
2021/09/21 09:17:11;;;;;;;7.35;3.00;;;;;;;17.11;51.98;100615.22;6074555;23;20056;-76
2021/09/21 09:19:43;;;;;;;9.18;3.35;;;;;;;17.07;52.24;100621.56;6169606;23;20013;-76
2021/09/21 09:22:11;;;;;;;5.20;3.00;;;;;;;16.94;52.25;100618.53;6159340;23;20021;-76
2021/09/21 09:24:49;;;;;;;5.90;2.83;;;;;;;17.02;51.86;100630.53;6134756;23;20097;-75
2021/09/21 09:27:16;;;;;;;4.35;2.80;;;;;;;16.87;51.64;100622.34;6135373;23;20017;-76
2021/09/21 09:29:53;;;;;;;4.18;3.10;;;;;;;16.85;52.08;100613.59;6134839;23;20443;-76
2021/09/21 09:32:18;;;;;;;5.38;3.33;;;;;;;16.98;53.00;100641.28;6135125;23;20025;-76
2021/09/21 09:34:44;;;;;;;4.90;3.35;;;;;;;16.99;52.95;100637.72;6159533;23;20013;-77
2021/09/21 09:37:10;;;;;;;4.72;3.47;;;;;;;17.00;53.59;100629.72;6159124;23;20033;-77
2021/09/21 09:39:36;;;;;;;5.20;3.78;;;;;;;16.87;53.89;100601.16;6183982;23;20022;-76
2021/09/21 09:42:02;;;;;;;11.18;4.88;;;;;;;16.76;54.16;100569.81;6109854;23;20010;-77
2021/09/21 09:44:29;;;;;;;6.00;4.43;;;;;;;17.14;53.58;100633.63;6134622;23;20013;-77
2021/09/21 09:47:00;;;;;;;5.88;4.63;;;;;;;17.02;53.21;100601.41;6159059;23;20032;-77
2021/09/21 09:49:34;;;;;;;5.95;4.32;;;;;;;17.25;53.85;100640.19;6144145;23;20013;-77
2021/09/21 09:52:08;;;;;;;5.20;4.40;;;;;;;17.17;54.00;100615.84;6110367;23;20289;-76
2021/09/21 09:54:35;;;;;;;6.63;5.03;;;;;;;17.24;53.63;100627.03;6135367;23;20025;-77
2021/09/21 09:57:02;;;;;;;5.85;3.72;;;;;;;17.35;53.61;100634.53;6159298;23;20092;-77
2021/09/21 09:59:28;;;;;;;8.77;5.25;;;;;;;17.26;52.43;100617.28;6134567;23;20013;-77
2021/09/21 10:01:53;;;;;;;8.25;4.63;;;;;;;17.23;52.23;100612.94;6158918;23;20492;-77
2021/09/21 10:04:20;;;;;;;4.50;3.50;;;;;;;17.26;53.37;100618.13;6110756;23;20041;-77
2021/09/21 10:06:46;;;;;;;5.38;4.18;;;;;;;17.41;53.62;100610.47;6134389;23;20025;-77
2021/09/21 10:09:11;;;;;;;4.30;3.47;;;;;;;17.49;53.58;100587.22;6135041;23;20014;-76
2021/09/21 10:11:37;;;;;;;3.92;2.90;;;;;;;17.70;53.32;100610.13;6158999;23;20017;-76
2021/09/21 10:14:04;;;;;;;4.82;3.10;;;;;;;17.85;52.83;100602.53;6158839;23;20017;-76
2021/09/21 10:16:29;;;;;;;4.45;3.45;;;;;;;17.86;51.81;100590.97;6135096;23;20037;-76
2021/09/21 10:19:03;;;;;;;4.07;3.17;;;;;;;17.98;50.99;100598.41;6134190;23;20013;-76
2021/09/21 10:21:34;;;;;;;3.20;2.67;;;;;;;18.12;50.36;100605.75;6147118;23;20113;-76
2021/09/21 10:24:06;;;;;;;5.55;2.83;;;;;;;18.04;48.89;100589.34;6119791;23;20404;-76
2021/09/21 10:26:38;;;;;;;3.67;3.00;;;;;;;18.12;47.87;100605.75;6145349;23;20014;-76
2021/09/21 10:29:04;;;;;;;4.57;2.63;;;;;;;18.04;49.48;100589.34;6134794;23;20082;-76
2021/09/21 10:31:30;;;;;;;5.20;3.70;;;;;;;18.14;49.18;100602.13;6158671;23;20400;-76
2021/09/21 10:33:56;;;;;;;4.47;2.50;;;;;;;18.16;47.05;100615.28;6158803;23;20024;-76
2021/09/21 10:36:29;;;;;;;3.30;2.20;;;;;;;18.12;47.03;100614.56;6158768;23;20040;-76
2021/09/21 10:39:09;;;;;;;3.85;2.35;;;;;;;18.12;47.13;100622.53;6168854;23;20021;-76
2021/09/21 10:42:05;;;;;;;2.33;2.13;;;;;;;18.11;46.61;100618.16;6167445;23;20020;-76
2021/09/21 10:44:31;;;;;;;2.65;1.75;;;;;;;18.12;47.43;100611.91;6157552;23;20104;-76
2021/09/21 10:47:04;;;;;;;1.98;1.50;;;;;;;18.36;45.77;100623.25;6134052;23;20022;-76
2021/09/21 10:49:41;;;;;;;4.82;1.77;;;;;;;18.49;46.15;100620.03;6158233;23;20021;-76
2021/09/21 10:52:10;;;;;;;2.75;1.67;;;;;;;18.73;46.97;100621.59;6169358;23;20021;-76
2021/09/21 10:54:37;;;;;;;5.97;1.88;;;;;;;18.81;46.11;100603.53;6109492;23;20302;-76
2021/09/21 10:57:11;;;;;;;8.02;4.22;;;;;;;19.05;46.13;100608.63;6132771;23;20288;-76
2021/09/21 10:59:41;;;;;;;2.45;2.10;;;;;;;19.08;45.24;100616.44;6142110;23;20021;-76
2021/09/21 11:02:08;;;;;;;2.50;1.75;;;;;;;19.02;44.20;100609.63;6166085;23;20020;-76
2021/09/21 11:04:42;;;;;;;2.63;1.75;;;;;;;19.01;44.07;100597.31;6156211;23;20076;-75
2021/09/21 11:07:10;;;;;;;4.53;1.35;;;;;;;19.03;43.34;100607.84;6141530;23;20018;-76
2021/09/21 11:09:36;;;;;;;3.05;1.63;;;;;;;19.05;43.96;100600.66;6107661;23;20317;-76
2021/09/21 11:12:09;;;;;;;2.40;1.75;;;;;;;19.24;43.96;100604.16;6132362;23;20021;-75
2021/09/21 11:14:40;;;;;;;3.88;1.58;;;;;;;19.33;44.45;100608.16;6134271;23;20017;-76
2021/09/21 11:17:07;;;;;;;5.25;2.72;;;;;;;19.09;44.54;100594.28;6119666;23;20013;-76
2021/09/21 11:19:32;;;;;;;3.28;2.63;;;;;;;19.25;43.96;100619.16;6158213;23;20017;-76
2021/09/21 11:22:04;;;;;;;5.25;2.15;;;;;;;19.06;43.17;100602.38;6131603;23;20021;-76
2021/09/21 11:24:30;;;;;;;3.00;2.00;;;;;;;19.09;44.02;100608.41;6133285;23;20021;-76
2021/09/21 11:26:59;;;;;;;5.57;4.53;;;;;;;19.26;44.54;100618.22;6158403;23;20285;-76
2021/09/21 11:29:25;;;;;;;2.20;2.00;;;;;;;19.07;44.17;100583.72;6183036;23;20257;-76
2021/09/21 11:31:51;;;;;;;2.88;2.28;;;;;;;19.29;44.30;100619.88;6134007;23;20427;-76
2021/09/21 11:34:17;;;;;;;3.72;2.17;;;;;;;19.35;44.58;100615.13;6158419;23;20336;-76
2021/09/21 11:36:49;;;;;;;2.30;2.00;;;;;;;19.37;44.61;100604.44;6159996;23;20013;-76
2021/09/21 11:39:15;;;;;;;2.28;1.63;;;;;;;19.30;44.36;100587.94;6146694;23;20064;-75
2021/09/21 11:41:41;;;;;;;3.00;2.47;;;;;;;19.41;44.89;100606.00;6135884;23;20021;-75
2021/09/21 11:44:07;;;;;;;4.03;2.85;;;;;;;19.31;44.31;100607.38;6160248;23;20017;-76
2021/09/21 11:46:33;;;;;;;2.75;2.20;;;;;;;19.10;44.13;100588.88;6160104;23;20019;-76
2021/09/21 11:49:03;;;;;;;5.53;2.97;;;;;;;19.19;43.93;100595.53;6136353;23;20021;-76
2021/09/21 11:51:31;;;;;;;2.50;1.95;;;;;;;19.21;45.17;100622.03;6170400;23;20022;-76
2021/09/21 11:53:56;;;;;;;3.63;2.65;;;;;;;19.02;44.45;100601.66;6135719;23;20068;-76